Time;durP1;ratioP1;P1;durP2;ratioP2;P2;SDS_P1;SDS_P2;PMS_P1;PMS_P2;Temp;Humidity;BMP_temperature;BMP_pressure;BME280_temperature;BME280_humidity;BME280_pressure;Samples;Min_cycle;Max_cycle;Signal;HPM_P1;HPM_P2
2023/01/22 00:02:03;;;;;;;;;;;;;;;;;;5093564;28;19915;-67
2023/01/22 00:04:29;;;;;;;;;;;;;;;;;;5092377;28;19915;-68
2023/01/22 00:06:55;;;;;;;;;;;;;;;;;;5093218;28;19920;-67
2023/01/22 00:09:21;;;;;;;;;;;;;;;;;;5093598;28;19912;-68
2023/01/22 00:11:47;;;;;;;;;;;;;;;;;;5092332;28;19948;-68
2023/01/22 00:14:13;;;;;;;;;;;;;;;;;;5093594;28;19908;-68
2023/01/22 00:16:40;;;;;;;;;;;;;;;;;;5093483;28;19908;-68
2023/01/22 00:19:06;;;;;;;;;;;;;;;;;;5091595;28;19971;-68
2023/01/22 00:21:33;;;;;;;;;;;;;;;;;;5093453;28;20445;-68
2023/01/22 00:23:58;;;;;;;;;;;;;;;;;;5093479;28;19955;-67
2023/01/22 00:26:24;;;;;;;;;;;;;;;;;;5093019;28;19916;-67
2023/01/22 00:28:50;;;;;;;;;;;;;;;;;;5093370;28;19908;-67
2023/01/22 00:31:16;;;;;;;;;;;;;;;;;;5093368;28;19915;-67
2023/01/22 00:33:42;;;;;;;;;;;;;;;;;;5093151;28;19953;-67
2023/01/22 00:36:08;;;;;;;;;;;;;;;;;;5093385;28;19912;-68
2023/01/22 00:38:34;;;;;;;;;;;;;;;;;;5093248;28;20356;-68
2023/01/22 00:41:01;;;;;;;;;;;;;;;;;;5092890;28;20284;-67
2023/01/22 00:43:27;;;;;;;;;;;;;;;;;;5095382;28;19933;-67
2023/01/22 00:45:53;;;;;;;;;;;;;;;;;;5096864;28;20349;-67
2023/01/22 00:48:18;;;;;;;;;;;;;;;;;;5096358;28;19971;-68
2023/01/22 00:50:44;;;;;;;;;;;;;;;;;;5096763;28;19908;-67
2023/01/22 00:53:10;;;;;;;;;;;;;;;;;;5096716;28;19908;-67
2023/01/22 00:55:36;;;;;;;;;;;;;;;;;;5096303;28;19961;-68
2023/01/22 00:58:02;;;;;;;;;;;;;;;;;;5096637;28;19908;-67
2023/01/22 01:00:28;;;;;;;;;;;;;;;;;;5096495;28;20018;-66
2023/01/22 01:05:39;;;;;;;;;;;;;;;;;;5096498;28;19990;-67
2023/01/22 01:08:05;;;;;;;;;;;;;;;;;;5094788;28;19915;-66
2023/01/22 01:10:30;;;;;;;;;;;;;;;;;;5096400;28;19999;-68
2023/01/22 01:12:56;;;;;;;;;;;;;;;;;;5095101;28;19962;-68
2023/01/22 01:15:23;;;;;;;;;;;;;;;;;;5095895;28;19908;-68
2023/01/22 01:17:49;;;;;;;;;;;;;;;;;;5096094;28;19916;-67
2023/01/22 01:20:15;;;;;;;;;;;;;;;;;;5096196;28;20371;-67
2023/01/22 01:22:41;;;;;;;;;;;;;;;;;;5095903;28;19908;-67
2023/01/22 01:25:06;;;;;;;;;;;;;;;;;;5094848;28;19950;-67
2023/01/22 01:27:32;;;;;;;;;;;;;;;;;;5094818;28;19958;-67
2023/01/22 01:29:58;;;;;;;;;;;;;;;;;;5095633;28;19911;-67
2023/01/22 01:32:24;;;;;;;;;;;;;;;;;;5095953;28;19923;-67
2023/01/22 01:34:50;;;;;;;;;;;;;;;;;;5095931;28;19908;-66
2023/01/22 01:37:16;;;;;;;;;;;;;;;;;;5095373;28;19908;-66
2023/01/22 01:39:42;;;;;;;;;;;;;;;;;;5095680;28;19959;-66
2023/01/22 01:42:08;;;;;;;;;;;;;;;;;;5095758;28;19908;-68
2023/01/22 01:44:34;;;;;;;;;;;;;;;;;;5094112;28;19917;-68
2023/01/22 01:47:00;;;;;;;;;;;;;;;;;;5094408;28;19915;-68
2023/01/22 01:49:26;;;;;;;;;;;;;;;;;;5094279;28;19913;-68
2023/01/22 01:51:52;;;;;;;;;;;;;;;;;;5093875;28;19954;-67
2023/01/22 01:54:18;;;;;;;;;;;;;;;;;;5095407;28;19908;-67
2023/01/22 01:56:44;;;;;;;;;;;;;;;;;;5095532;28;19953;-68
2023/01/22 01:59:10;;;;;;;;;;;;;;;;;;5095014;28;20414;-67
2023/01/22 02:01:36;;;;;;;;;;;;;;;;;;5095359;28;20030;-68
2023/01/22 02:04:01;;;;;;;;;;;;;;;;;;5094257;28;19908;-68
2023/01/22 02:06:27;;;;;;;;;;;;;;;;;;5094890;28;19915;-67
2023/01/22 02:08:53;;;;;;;;;;;;;;;;;;5095233;28;19908;-67
2023/01/22 02:11:19;;;;;;;;;;;;;;;;;;5094143;28;19959;-66
2023/01/22 02:13:45;;;;;;;;;;;;;;;;;;5093848;28;20014;-68
2023/01/22 02:16:11;;;;;;;;;;;;;;;;;;5093802;28;19908;-68
2023/01/22 02:18:37;;;;;;;;;;;;;;;;;;5094661;28;20371;-68
2023/01/22 02:21:03;;;;;;;;;;;;;;;;;;5095304;28;19912;-68
2023/01/22 02:23:29;;;;;;;;;;;;;;;;;;5095016;28;19915;-67
2023/01/22 02:25:55;;;;;;;;;;;;;;;;;;5093287;28;19912;-67
2023/01/22 02:28:21;;;;;;;;;;;;;;;;;;5094972;28;20391;-66
2023/01/22 02:30:47;;;;;;;;;;;;;;;;;;5095085;28;20362;-67
2023/01/22 02:33:13;;;;;;;;;;;;;;;;;;5093146;28;19922;-66
2023/01/22 02:35:39;;;;;;;;;;;;;;;;;;5093477;28;19908;-66
2023/01/22 02:38:05;;;;;;;;;;;;;;;;;;5094811;28;19912;-67
2023/01/22 02:40:32;;;;;;;;;;;;;;;;;;5094481;28;19916;-67
2023/01/22 02:42:58;;;;;;;;;;;;;;;;;;5094619;28;19908;-67
2023/01/22 02:45:24;;;;;;;;;;;;;;;;;;5094629;28;20329;-67
2023/01/22 02:47:50;;;;;;;;;;;;;;;;;;5092877;28;19908;-68
2023/01/22 02:50:16;;;;;;;;;;;;;;;;;;5093181;28;20049;-67
2023/01/22 02:52:42;;;;;;;;;;;;;;;;;;5094472;28;20003;-67
2023/01/22 02:55:08;;;;;;;;;;;;;;;;;;5094102;28;19908;-67
2023/01/22 02:57:34;;;;;;;;;;;;;;;;;;5094398;28;19912;-67
2023/01/22 03:00:00;;;;;;;;;;;;;;;;;;5094238;28;19919;-67
2023/01/22 03:02:26;;;;;;;;;;;;;;;;;;5093936;28;19912;-67
2023/01/22 03:05:02;;;;;;;;;;;;;;;;;;5093967;28;19908;-67
2023/01/22 03:07:40;;;;;;;;;;;;;;;;;;5093096;28;20352;-67
2023/01/22 03:10:06;;;;;;;;;;;;;;;;;;5094647;28;20281;-67
2023/01/22 03:23:31;;;;;;;;;;;;;;;;;;5093664;28;19915;-67
2023/01/22 03:25:57;;;;;;;;;;;;;;;;;;5092703;28;19916;-67
2023/01/22 03:28:23;;;;;;;;;;;;;;;;;;5093987;28;19912;-67
2023/01/22 03:30:49;;;;;;;;;;;;;;;;;;5092301;28;19908;-68
2023/01/22 03:33:15;;;;;;;;;;;;;;;;;;5094267;28;19912;-68
2023/01/22 03:35:41;;;;;;;;;;;;;;;;;;5093878;28;20257;-67
2023/01/22 03:38:07;;;;;;;;;;;;;;;;;;5093515;28;20267;-67
2023/01/22 03:40:33;;;;;;;;;;;;;;;;;;5093797;28;20337;-67
2023/01/22 03:42:59;;;;;;;;;;;;;;;;;;5093688;28;20280;-66
2023/01/22 03:45:25;;;;;;;;;;;;;;;;;;5093848;28;19912;-66
2023/01/22 03:47:50;;;;;;;;;;;;;;;;;;5093777;28;19915;-66
2023/01/22 03:50:16;;;;;;;;;;;;;;;;;;5093426;28;19916;-65
2023/01/22 03:52:42;;;;;;;;;;;;;;;;;;5093749;28;19908;-67
2023/01/22 03:55:08;;;;;;;;;;;;;;;;;;5093775;28;20001;-67
2023/01/22 03:57:34;;;;;;;;;;;;;;;;;;5093422;28;19909;-67
2023/01/22 04:00:00;;;;;;;;;;;;;;;;;;5093613;28;19916;-68
2023/01/22 04:02:26;;;;;;;;;;;;;;;;;;5093602;28;19908;-67
2023/01/22 04:04:52;;;;;;;;;;;;;;;;;;5092025;28;20420;-68
2023/01/22 04:07:18;;;;;;;;;;;;;;;;;;5093646;28;20364;-68
2023/01/22 04:09:44;;;;;;;;;;;;;;;;;;5092396;28;20374;-68
2023/01/22 04:12:10;;;;;;;;;;;;;;;;;;5093153;28;19961;-67
2023/01/22 04:14:36;;;;;;;;;;;;;;;;;;5092317;28;19912;-66
2023/01/22 04:17:02;;;;;;;;;;;;;;;;;;5093616;28;19915;-67
2023/01/22 04:19:28;;;;;;;;;;;;;;;;;;5096719;28;19920;-66
2023/01/22 04:21:54;;;;;;;;;;;;;;;;;;5097312;28;19995;-66
2023/01/22 04:24:20;;;;;;;;;;;;;;;;;;5097887;28;19944;-66
2023/01/22 04:26:46;;;;;;;;;;;;;;;;;;5097012;28;19912;-67
2023/01/22 04:29:12;;;;;;;;;;;;;;;;;;5095931;28;19908;-67
2023/01/22 04:31:38;;;;;;;;;;;;;;;;;;5097139;28;19909;-67
2023/01/22 04:34:04;;;;;;;;;;;;;;;;;;5095489;28;19962;-67
2023/01/22 04:36:30;;;;;;;;;;;;;;;;;;5097199;28;20386;-67
2023/01/22 04:38:56;;;;;;;;;;;;;;;;;;5095760;28;19966;-68
2023/01/22 04:41:22;;;;;;;;;;;;;;;;;;5096551;28;20364;-67
2023/01/22 04:43:47;;;;;;;;;;;;;;;;;;5096923;28;19999;-67
2023/01/22 04:46:14;;;;;;;;;;;;;;;;;;5096504;28;19919;-67
2023/01/22 04:48:39;;;;;;;;;;;;;;;;;;5095668;28;19931;-67
2023/01/22 04:51:05;;;;;;;;;;;;;;;;;;5095499;28;20387;-67
2023/01/22 04:53:31;;;;;;;;;;;;;;;;;;5096328;28;20478;-67
2023/01/22 04:55:57;;;;;;;;;;;;;;;;;;5095408;28;19915;-68
2023/01/22 04:58:23;;;;;;;;;;;;;;;;;;5095421;28;19915;-68
2023/01/22 05:00:49;;;;;;;;;;;;;;;;;;5096123;28;19946;-67
2023/01/22 05:03:15;;;;;;;;;;;;;;;;;;5096562;28;20253;-67
2023/01/22 05:05:41;;;;;;;;;;;;;;;;;;5096504;28;20319;-68
2023/01/22 05:08:07;;;;;;;;;;;;;;;;;;5096088;28;19953;-67
2023/01/22 05:10:33;;;;;;;;;;;;;;;;;;5096369;28;19931;-67
2023/01/22 05:12:59;;;;;;;;;;;;;;;;;;5095043;28;19908;-68
2023/01/22 05:15:25;;;;;;;;;;;;;;;;;;5094623;28;19908;-67
2023/01/22 05:17:51;;;;;;;;;;;;;;;;;;5096080;28;19927;-66
2023/01/22 05:20:17;;;;;;;;;;;;;;;;;;5096196;28;19963;-66
2023/01/22 05:22:43;;;;;;;;;;;;;;;;;;5095875;28;19954;-67
2023/01/22 05:25:09;;;;;;;;;;;;;;;;;;5096414;28;20399;-66
2023/01/22 05:27:34;;;;;;;;;;;;;;;;;;5094899;28;20327;-67
2023/01/22 05:30:00;;;;;;;;;;;;;;;;;;5095127;28;19947;-67
2023/01/22 05:32:26;;;;;;;;;;;;;;;;;;5094769;28;19934;-67
2023/01/22 05:34:52;;;;;;;;;;;;;;;;;;5096058;28;19915;-68
2023/01/22 05:37:18;;;;;;;;;;;;;;;;;;5095561;28;19908;-68
2023/01/22 05:39:44;;;;;;;;;;;;;;;;;;5095816;28;19955;-68
2023/01/22 05:42:10;;;;;;;;;;;;;;;;;;5095824;28;19958;-67
2023/01/22 05:44:36;;;;;;;;;;;;;;;;;;5094011;28;19908;-67
2023/01/22 05:47:02;;;;;;;;;;;;;;;;;;5095660;28;20003;-68
2023/01/22 05:49:28;;;;;;;;;;;;;;;;;;5095283;28;19908;-67
2023/01/22 05:51:54;;;;;;;;;;;;;;;;;;5095613;28;19908;-67
2023/01/22 05:54:20;;;;;;;;;;;;;;;;;;5095533;28;19953;-67
2023/01/22 05:56:46;;;;;;;;;;;;;;;;;;5093991;28;19922;-66
2023/01/22 05:59:12;;;;;;;;;;;;;;;;;;5094150;28;19916;-67
2023/01/22 06:01:38;;;;;;;;;;;;;;;;;;5095428;28;20363;-67
2023/01/22 06:04:04;;;;;;;;;;;;;;;;;;5095441;28;20444;-67
2023/01/22 06:06:29;;;;;;;;;;;;;;;;;;5095327;28;20010;-67
2023/01/22 06:08:55;;;;;;;;;;;;;;;;;;5095290;28;19919;-67
2023/01/22 06:11:21;;;;;;;;;;;;;;;;;;5095153;28;19921;-67
2023/01/22 06:13:47;;;;;;;;;;;;;;;;;;5093846;28;20352;-67
2023/01/22 06:16:13;;;;;;;;;;;;;;;;;;5095211;28;20364;-67
2023/01/22 06:18:39;;;;;;;;;;;;;;;;;;5093207;28;19953;-68
2023/01/22 06:21:05;;;;;;;;;;;;;;;;;;5095037;28;20368;-67
2023/01/22 06:23:31;;;;;;;;;;;;;;;;;;5095007;28;19934;-67
2023/01/22 06:25:57;;;;;;;;;;;;;;;;;;5094577;28;19908;-67
2023/01/22 06:28:23;;;;;;;;;;;;;;;;;;5094946;28;19947;-68
2023/01/22 06:30:49;;;;;;;;;;;;;;;;;;5095189;28;19954;-68
2023/01/22 06:33:15;;;;;;;;;;;;;;;;;;5094433;28;20392;-68
2023/01/22 06:35:41;;;;;;;;;;;;;;;;;;5094829;28;20391;-69
2023/01/22 06:38:07;;;;;;;;;;;;;;;;;;5094708;28;19908;-68
2023/01/22 06:40:33;;;;;;;;;;;;;;;;;;5093401;28;19959;-67
2023/01/22 06:42:59;;;;;;;;;;;;;;;;;;5093387;28;19950;-69
2023/01/22 06:45:25;;;;;;;;;;;;;;;;;;5094622;28;19908;-67
2023/01/22 06:47:50;;;;;;;;;;;;;;;;;;5092887;28;19908;-70
2023/01/22 06:50:16;;;;;;;;;;;;;;;;;;5094484;28;19970;-67
2023/01/22 06:52:42;;;;;;;;;;;;;;;;;;5092856;28;19941;-67
2023/01/22 06:55:08;;;;;;;;;;;;;;;;;;5094522;28;19916;-67
2023/01/22 06:57:34;;;;;;;;;;;;;;;;;;5094427;28;19959;-67
2023/01/22 07:00:00;;;;;;;;;;;;;;;;;;5093888;28;19916;-67
2023/01/22 07:02:26;;;;;;;;;;;;;;;;;;5093053;28;19915;-67
2023/01/22 07:04:52;;;;;;;;;;;;;;;;;;5094778;28;19908;-67
2023/01/22 07:07:18;;;;;;;;;;;;;;;;;;5092534;28;20348;-67
2023/01/22 07:09:44;;;;;;;;;;;;;;;;;;5094564;28;20356;-68
2023/01/22 07:12:10;;;;;;;;;;;;;;;;;;5094185;28;20434;-66
2023/01/22 07:14:36;;;;;;;;;;;;;;;;;;5093766;28;20352;-67
2023/01/22 07:17:02;;;;;;;;;;;;;;;;;;5094140;28;19961;-67
2023/01/22 07:19:28;;;;;;;;;;;;;;;;;;5093844;28;19924;-67
2023/01/22 07:21:54;;;;;;;;;;;;;;;;;;5093707;28;19908;-70
2023/01/22 07:24:19;;;;;;;;;;;;;;;;;;5094039;28;19909;-66
2023/01/22 07:26:47;;;;;;;;;;;;;;;;;;5092710;28;19956;-67
2023/01/22 07:29:13;;;;;;;;;;;;;;;;;;5092332;28;20368;-67
2023/01/22 07:31:39;;;;;;;;;;;;;;;;;;5094037;28;19995;-67
2023/01/22 07:34:05;;;;;;;;;;;;;;;;;;5093940;28;19916;-68
2023/01/22 07:36:31;;;;;;;;;;;;;;;;;;5093480;28;19908;-67
2023/01/22 07:38:57;;;;;;;;;;;;;;;;;;5093773;28;19923;-67
2023/01/22 07:41:23;;;;;;;;;;;;;;;;;;5093849;28;19955;-67
2023/01/22 07:43:49;;;;;;;;;;;;;;;;;;5093371;28;19953;-67
2023/01/22 07:46:15;;;;;;;;;;;;;;;;;;5093839;28;19955;-67
2023/01/22 07:48:41;;;;;;;;;;;;;;;;;;5093758;28;19961;-67
2023/01/22 07:51:07;;;;;;;;;;;;;;;;;;5093595;28;19908;-67
2023/01/22 07:53:33;;;;;;;;;;;;;;;;;;5098127;28;19908;-68
2023/01/22 07:55:59;;;;;;;;;;;;;;;;;;5097756;28;19909;-67
2023/01/22 07:58:25;;;;;;;;;;;;;;;;;;5097963;28;20365;-67
2023/01/22 08:00:51;;;;;;;;;;;;;;;;;;5097743;28;19922;-67
2023/01/22 08:03:17;;;;;;;;;;;;;;;;;;5097343;28;19953;-67
2023/01/22 08:05:43;;;;;;;;;;;;;;;;;;5097725;28;20275;-67
2023/01/22 08:08:09;;;;;;;;;;;;;;;;;;5096324;28;19908;-67
2023/01/22 08:10:35;;;;;;;;;;;;;;;;;;5097731;28;20285;-67
2023/01/22 08:13:01;;;;;;;;;;;;;;;;;;5097602;28;19909;-67
2023/01/22 08:15:27;;;;;;;;;;;;;;;;;;5097649;28;20351;-67
2023/01/22 08:17:53;;;;;;;;;;;;;;;;;;5096981;28;19920;-67
2023/01/22 08:20:19;;;;;;;;;;;;;;;;;;5097674;28;19916;-66
2023/01/22 08:22:45;;;;;;;;;;;;;;;;;;5097555;28;19912;-67
2023/01/22 08:25:11;;;;;;;;;;;;;;;;;;5097290;28;19915;-67
2023/01/22 08:27:37;;;;;;;;;;;;;;;;;;5097242;28;19930;-67
2023/01/22 08:30:03;;;;;;;;;;;;;;;;;;5097227;28;20014;-67
2023/01/22 08:32:29;;;;;;;;;;;;;;;;;;5095488;28;20007;-67
2023/01/22 08:34:55;;;;;;;;;;;;;;;;;;5097140;28;19912;-67
2023/01/22 08:37:21;;;;;;;;;;;;;;;;;;5097148;28;19954;-67
2023/01/22 08:39:47;;;;;;;;;;;;;;;;;;5096601;28;20015;-67
2023/01/22 08:42:13;;;;;;;;;;;;;;;;;;5097129;28;20356;-67
2023/01/22 08:44:39;;;;;;;;;;;;;;;;;;5096932;28;19955;-67
2023/01/22 08:47:05;;;;;;;;;;;;;;;;;;5096518;28;19919;-68
2023/01/22 08:49:31;;;;;;;;;;;;;;;;;;5096866;28;19916;-67
2023/01/22 08:51:57;;;;;;;;;;;;;;;;;;5095533;28;20053;-67
2023/01/22 08:54:23;;;;;;;;;;;;;;;;;;5096393;28;19977;-68
2023/01/22 08:56:49;;;;;;;;;;;;;;;;;;5096755;28;19908;-68
2023/01/22 08:59:15;;;;;;;;;;;;;;;;;;5096540;28;19969;-68
2023/01/22 09:01:41;;;;;;;;;;;;;;;;;;5096176;28;19908;-68
2023/01/22 09:04:07;;;;;;;;;;;;;;;;;;5095682;28;19922;-68
2023/01/22 09:06:32;;;;;;;;;;;;;;;;;;5096119;28;20331;-66
2023/01/22 09:09:00;;;;;;;;;;;;;;;;;;5096643;28;19916;-67
2023/01/22 09:11:26;;;;;;;;;;;;;;;;;;5095074;28;19954;-66
2023/01/22 09:13:55;;;;;;;;;;;;;;;;;;5095959;28;19947;-67
2023/01/22 09:16:20;;;;;;;;;;;;;;;;;;5096335;28;20284;-68
2023/01/22 09:18:46;;;;;;;;;;;;;;;;;;5096032;28;19920;-68
2023/01/22 09:21:12;;;;;;;;;;;;;;;;;;5095899;28;19912;-68
2023/01/22 09:23:38;;;;;;;;;;;;;;;;;;5096189;28;19934;-69
2023/01/22 09:26:04;;;;;;;;;;;;;;;;;;5094895;28;19965;-68
2023/01/22 09:28:30;;;;;;;;;;;;;;;;;;5095694;28;19915;-68
2023/01/22 09:30:56;;;;;;;;;;;;;;;;;;5096037;28;19911;-68
2023/01/22 09:33:22;;;;;;;;;;;;;;;;;;5096066;28;19961;-68
2023/01/22 09:35:48;;;;;;;;;;;;;;;;;;5095547;28;19914;-68
2023/01/22 09:38:14;;;;;;;;;;;;;;;;;;5096087;28;20349;-68
2023/01/22 09:40:40;;;;;;;;;;;;;;;;;;5095857;28;20414;-68
2023/01/22 09:43:06;;;;;;;;;;;;;;;;;;5095422;28;20415;-68
2023/01/22 09:45:32;;;;;;;;;;;;;;;;;;5096017;28;20275;-68
2023/01/22 09:47:59;;;;;;;;;;;;;;;;;;5095770;28;20283;-67
2023/01/22 09:50:25;;;;;;;;;;;;;;;;;;5095285;28;19912;-67
2023/01/22 09:52:51;;;;;;;;;;;;;;;;;;5095640;28;19992;-68
2023/01/22 09:55:17;;;;;;;;;;;;;;;;;;5095653;28;19953;-67
2023/01/22 09:57:43;;;;;;;;;;;;;;;;;;5095186;28;19908;-68
2023/01/22 10:00:09;;;;;;;;;;;;;;;;;;5094126;28;19916;-68
2023/01/22 10:02:35;;;;;;;;;;;;;;;;;;5094010;28;19908;-68
2023/01/22 10:05:54;;;;;;;;;;;;;;;;;;5091666;28;19923;-67
2023/01/22 10:08:20;;;;;;;;;;;;;;;;;;5090132;28;19912;-68
2023/01/22 10:10:46;;;;;;;;;;;;;;;;;;5090844;28;20316;-67
2023/01/22 10:13:12;;;;;;;;;;;;;;;;;;5091224;28;19908;-67
2023/01/22 10:15:38;;;;;;;;;;;;;;;;;;5091237;28;19909;-68
2023/01/22 10:20:42;;;;;;;;;;;;;;;;;;5091924;27;19917;-67
2023/01/22 10:26:00;;;;;;;;;;;;;;;;;;5132325;27;20288;-67
2023/01/22 10:28:26;;;;;;;;;;;;;;;;;;5132327;28;19958;-67
2023/01/22 10:32:05;;;;;;;;;;;;;;;;;;5070721;28;19919;-69
2023/01/22 10:34:33;;;;;;;;;;;;;;;;;;5086804;28;20007;-67
2023/01/22 10:36:59;;;;;;;;;;;;;;;;;;5071199;28;19915;-68
2023/01/22 10:39:25;;;;;;;;;;;;;;;;;;5070700;28;19909;-68
2023/01/22 10:41:50;;;;;;;;;;;;;;;;;;5070990;28;19920;-68
2023/01/22 10:44:16;;;;;;;;;;;;;;;;;;5086623;28;19909;-68
2023/01/22 10:49:07;;;;;;;;;;;;;;;;;;5091448;27;19916;-69
2023/01/22 10:53:44;;;;;;;;;;;;;;;;;;5111497;27;19922;-69
2023/01/22 10:56:10;;;;;;;;;;;;;;;;;;5111744;28;19958;-68
2023/01/22 10:58:36;;;;;;;;;;;;;;;;;;5110450;28;19908;-68
2023/01/22 11:05:18;;;;;;;;;;;;;;;;;;5091577;27;19923;-67
2023/01/22 11:07:43;;;;;;;;;;;;;;;;;;5089806;28;19947;-68
2023/01/22 11:10:09;;;;;;;;;;;;;;;;;;5091276;28;19908;-68
2023/01/22 11:12:35;;;;;;;;;;;;;;;;;;5089985;28;19962;-67
2023/01/22 11:17:20;;;;;;;;;;;;;;;;;;5112455;27;19916;-67
2023/01/22 11:19:46;;;;;;;;;;;;;;;;;;5110545;28;20353;-67
2023/01/22 11:22:12;;;;;;;;;;;;;;;;;;5111268;28;19908;-68
2023/01/22 11:28:25;;;;;;;;;;;;;;;;;;5091401;27;19919;-69
2023/01/22 11:31:14;;;;;;;;;;;;;;;;;;5111778;27;20376;-68
2023/01/22 11:35:24;;;;;;;;;;;;;;;;;;5111640;27;20384;-68
2023/01/22 11:40:43;;;;;;;;;;;;;;;;;;5112588;27;19918;-69
2023/01/22 11:46:57;;;;;;;;;;;;;;;;;;5092350;27;19916;-68
2023/01/22 11:49:23;;;;;;;;;;;;;;;;;;5091109;28;20003;-68
2023/01/22 11:51:49;;;;;;;;;;;;;;;;;;5090166;28;20325;-68
2023/01/22 11:58:27;;;;;;;;;;;;;;;;;;5071978;28;19923;-68
2023/01/22 12:00:53;;;;;;;;;;;;;;;;;;5071186;28;19999;-69
2023/01/22 12:04:51;;;;;;;;;;;;;;;;;;5091838;27;19917;-69
2023/01/22 12:07:17;;;;;;;;;;;;;;;;;;5091418;28;20448;-69
2023/01/22 12:10:37;;;;;;;;;;;;;;;;;;5091284;27;20273;-69
2023/01/22 12:13:03;;;;;;;;;;;;;;;;;;5091331;28;20011;-68
2023/01/22 12:15:29;;;;;;;;;;;;;;;;;;5091315;28;20335;-69
2023/01/22 12:20:05;;;;;;;;;;;;;;;;;;5132907;27;19916;-69
2023/01/22 12:23:02;;;;;;;;;;;;;;;;;;5174410;27;20014;-69
2023/01/22 12:25:28;;;;;;;;;;;;;;;;;;5154646;27;19915;-68
2023/01/22 12:28:39;;;;;;;;;;;;;;;;;;5092387;27;19923;-69
2023/01/22 12:34:01;;;;;;;;;;;;;;;;;;5091523;27;19916;-68
2023/01/22 12:36:27;;;;;;;;;;;;;;;;;;5091337;28;20447;-68
2023/01/22 12:38:54;;;;;;;;;;;;;;;;;;5090986;28;19908;-68
2023/01/22 12:41:19;;;;;;;;;;;;;;;;;;5091452;28;20369;-71
2023/01/22 12:43:46;;;;;;;;;;;;;;;;;;5091692;28;19974;-68
2023/01/22 12:48:34;;;;;;;;;;;;;;;;;;5173931;27;19918;-69
2023/01/22 12:51:00;;;;;;;;;;;;;;;;;;5174027;27;19911;-69
2023/01/22 12:54:51;;;;;;;;;;;;;;;;;;5111759;27;19923;-69
2023/01/22 12:57:19;;;;;;;;;;;;;;;;;;5111688;28;20007;-69
2023/01/22 12:59:45;;;;;;;;;;;;;;;;;;5109930;28;19908;-68
2023/01/22 13:02:25;;;;;;;;;;;;;;;;;;5051958;28;20285;-68
2023/01/22 13:06:14;;;;;;;;;;;;;;;;;;5091360;27;19917;-68
2023/01/22 13:08:40;;;;;;;;;;;;;;;;;;5091186;28;20007;-68
2023/01/22 13:11:06;;;;;;;;;;;;;;;;;;5091533;28;20408;-68
2023/01/22 13:13:32;;;;;;;;;;;;;;;;;;5090854;28;19947;-67
2023/01/22 13:19:11;;;;;;;;;;;;;;;;;;5111684;27;19918;-68
2023/01/22 13:21:37;;;;;;;;;;;;;;;;;;5111350;28;19912;-68
2023/01/22 13:26:21;;;;;;;;;;;;;;;;;;5111997;27;19916;-69
2023/01/22 13:28:47;;;;;;;;;;;;;;;;;;5111397;28;20003;-69
2023/01/22 13:31:13;;;;;;;;;;;;;;;;;;5110443;28;19908;-69
2023/01/22 13:36:18;;;;;;;;;;;;;;;;;;5091945;27;19923;-69
2023/01/22 13:38:43;;;;;;;;;;;;;;;;;;5091385;28;20006;-69
2023/01/22 13:42:11;;;;;;;;;;;;;;;;;;5111551;27;19916;-67
2023/01/22 13:44:37;;;;;;;;;;;;;;;;;;5110359;28;19916;-69
2023/01/22 13:47:03;;;;;;;;;;;;;;;;;;5112070;28;19953;-68
2023/01/22 13:49:29;;;;;;;;;;;;;;;;;;5109937;28;20267;-68
2023/01/22 13:53:39;;;;;;;;;;;;;;;;;;5153133;27;19998;-69
2023/01/22 13:56:32;;;;;;;;;;;;;;;;;;5111436;27;20390;-69
2023/01/22 14:00:53;;;;;;;;;;;;;;;;;;5091617;27;19916;-68
2023/01/22 14:05:05;;;;;;;;;;;;;;;;;;5091975;27;19916;-68
2023/01/22 14:07:31;;;;;;;;;;;;;;;;;;5091421;28;19998;-68
2023/01/22 14:09:57;;;;;;;;;;;;;;;;;;5091107;28;19913;-68
2023/01/22 14:13:41;;;;;;;;;;;;;;;;;;5091973;27;19916;-69
2023/01/22 14:16:07;;;;;;;;;;;;;;;;;;5090954;28;20038;-68
2023/01/22 14:18:33;;;;;;;;;;;;;;;;;;5091277;28;19908;-67
2023/01/22 14:21:34;;;;;;;;;;;;;;;;;;5071665;28;20296;-67
2023/01/22 14:24:00;;;;;;;;;;;;;;;;;;5069505;28;19920;-69
2023/01/22 14:26:56;;;;;;;;;;;;;;;;;;5091578;27;19916;-69
2023/01/22 14:29:22;;;;;;;;;;;;;;;;;;5091700;28;19951;-68
2023/01/22 14:31:48;;;;;;;;;;;;;;;;;;5090887;28;20391;-69
2023/01/22 14:35:19;;;;;;;;;;;;;;;;;;5092340;28;19916;-69
2023/01/22 14:37:45;;;;;;;;;;;;;;;;;;5089710;28;20003;-69
2023/01/22 14:40:11;;;;;;;;;;;;;;;;;;5091284;28;19908;-67
2023/01/22 14:42:37;;;;;;;;;;;;;;;;;;5091340;28;19908;-67
2023/01/22 14:45:03;;;;;;;;;;;;;;;;;;5090820;28;19915;-68
2023/01/22 14:47:29;;;;;;;;;;;;;;;;;;5091424;28;19912;-67
2023/01/22 14:56:55;;;;;;;;;;;;;;;;;;5152969;27;20369;-75
2023/01/22 14:59:55;;;;;;;;;;;;;;;;;;5111496;27;19916;-72
2023/01/22 15:04:20;;;;;;;;;;;;;;;;;;5091530;27;19935;-74
2023/01/22 15:06:46;;;;;;;;;;;;;;;;;;5090962;28;20432;-73
2023/01/22 15:09:12;;;;;;;;;;;;;;;;;;5090044;28;19912;-72
2023/01/22 15:11:38;;;;;;;;;;;;;;;;;;5091181;28;19912;-73
2023/01/22 15:14:47;;;;;;;;;;;;;;;;;;5112406;27;19916;-72
2023/01/22 15:18:29;;;;;;;;;;;;;;;;;;5112049;27;19912;-74
2023/01/22 15:20:54;;;;;;;;;;;;;;;;;;5110113;28;20003;-73
2023/01/22 15:25:50;;;;;;;;;;;;;;;;;;5111793;27;19916;-73
2023/01/22 15:29:00;;;;;;;;;;;;;;;;;;5111779;27;19923;-73
2023/01/22 15:33:03;;;;;;;;;;;;;;;;;;5112432;27;19923;-73
2023/01/22 15:35:29;;;;;;;;;;;;;;;;;;5111428;28;20342;-74
2023/01/22 15:37:55;;;;;;;;;;;;;;;;;;5111654;28;19908;-75
2023/01/22 15:40:21;;;;;;;;;;;;;;;;;;5111177;28;19912;-73
2023/01/22 15:44:33;;;;;;;;;;;;;;;;;;5132684;27;20002;-74
2023/01/22 15:46:59;;;;;;;;;;;;;;;;;;5132211;28;19962;-73
2023/01/22 15:49:25;;;;;;;;;;;;;;;;;;5130544;28;19908;-74
2023/01/22 15:51:51;;;;;;;;;;;;;;;;;;5132049;28;19957;-73
2023/01/22 15:54:17;;;;;;;;;;;;;;;;;;5131647;28;19908;-74
2023/01/22 15:56:43;;;;;;;;;;;;;;;;;;5132057;28;20010;-74
2023/01/22 15:59:09;;;;;;;;;;;;;;;;;;5132022;28;19911;-74
2023/01/22 16:01:35;;;;;;;;;;;;;;;;;;5131508;28;19990;-73
2023/01/22 16:04:02;;;;;;;;;;;;;;;;;;5131918;28;19920;-72
2023/01/22 16:06:28;;;;;;;;;;;;;;;;;;5131829;27;20372;-72
2023/01/22 16:08:55;;;;;;;;;;;;;;;;;;5131581;28;19950;-73
2023/01/22 16:11:21;;;;;;;;;;;;;;;;;;5131753;27;19974;-73
2023/01/22 16:13:47;;;;;;;;;;;;;;;;;;5131760;28;20360;-73
2023/01/22 16:16:13;;;;;;;;;;;;;;;;;;5129890;28;20383;-73
2023/01/22 16:18:39;;;;;;;;;;;;;;;;;;5131614;28;19968;-73
2023/01/22 16:21:05;;;;;;;;;;;;;;;;;;5130126;28;19907;-72
2023/01/22 16:23:31;;;;;;;;;;;;;;;;;;5131077;28;19926;-73
2023/01/22 16:25:57;;;;;;;;;;;;;;;;;;5129958;28;20003;-73
2023/01/22 16:28:23;;;;;;;;;;;;;;;;;;5131384;27;19911;-73
2023/01/22 16:30:49;;;;;;;;;;;;;;;;;;5130929;28;20445;-74
2023/01/22 16:33:15;;;;;;;;;;;;;;;;;;5131281;28;20252;-73
2023/01/22 16:35:41;;;;;;;;;;;;;;;;;;5131325;28;19941;-73
2023/01/22 16:38:07;;;;;;;;;;;;;;;;;;5129484;28;19908;-73
2023/01/22 16:40:33;;;;;;;;;;;;;;;;;;5131076;28;19967;-73
2023/01/22 16:42:59;;;;;;;;;;;;;;;;;;5129635;28;19963;-73
2023/01/22 16:45:25;;;;;;;;;;;;;;;;;;5130689;27;20284;-73
2023/01/22 16:47:51;;;;;;;;;;;;;;;;;;5130947;28;19911;-73
2023/01/22 16:50:17;;;;;;;;;;;;;;;;;;5131594;28;19914;-73
2023/01/22 16:52:43;;;;;;;;;;;;;;;;;;5129366;28;20521;-73
2023/01/22 16:55:09;;;;;;;;;;;;;;;;;;5121309;28;20288;-74
2023/01/22 16:57:34;;;;;;;;;;;;;;;;;;5116690;28;20256;-74
2023/01/22 17:00:00;;;;;;;;;;;;;;;;;;5115868;28;20383;-73
2023/01/22 17:02:26;;;;;;;;;;;;;;;;;;5117049;28;19912;-73
2023/01/22 17:04:53;;;;;;;;;;;;;;;;;;5115382;28;19911;-73
2023/01/22 17:07:19;;;;;;;;;;;;;;;;;;5116073;28;20325;-73
2023/01/22 17:09:45;;;;;;;;;;;;;;;;;;5116997;28;19915;-73
2023/01/22 17:12:11;;;;;;;;;;;;;;;;;;5115284;28;19919;-73
2023/01/22 17:14:37;;;;;;;;;;;;;;;;;;5117638;28;20356;-72
2023/01/22 17:17:03;;;;;;;;;;;;;;;;;;5116757;28;20359;-72
2023/01/22 17:19:29;;;;;;;;;;;;;;;;;;5116463;28;19915;-72
2023/01/22 17:21:58;;;;;;;;;;;;;;;;;;5116640;28;19908;-72
2023/01/22 17:24:24;;;;;;;;;;;;;;;;;;5116593;28;19916;-72
2023/01/22 17:26:50;;;;;;;;;;;;;;;;;;5116244;28;19961;-72
2023/01/22 17:29:16;;;;;;;;;;;;;;;;;;5116549;28;19908;-73
2023/01/22 17:31:42;;;;;;;;;;;;;;;;;;5116496;28;19908;-74
2023/01/22 17:34:09;;;;;;;;;;;;;;;;;;5116070;28;19994;-73
2023/01/22 17:36:35;;;;;;;;;;;;;;;;;;5115166;28;19939;-73
2023/01/22 17:39:02;;;;;;;;;;;;;;;;;;5116724;28;20385;-73
2023/01/22 17:41:29;;;;;;;;;;;;;;;;;;5116039;28;19915;-73
2023/01/22 17:43:56;;;;;;;;;;;;;;;;;;5116242;28;20368;-73
2023/01/22 17:46:22;;;;;;;;;;;;;;;;;;5116515;28;20372;-72
2023/01/22 17:48:48;;;;;;;;;;;;;;;;;;5114475;28;19953;-74
2023/01/22 17:51:14;;;;;;;;;;;;;;;;;;5116135;28;19907;-72
2023/01/22 17:53:40;;;;;;;;;;;;;;;;;;5114823;28;20421;-72
2023/01/22 17:56:06;;;;;;;;;;;;;;;;;;5115588;28;20019;-71
2023/01/22 17:58:32;;;;;;;;;;;;;;;;;;5116057;28;19999;-73
2023/01/22 18:00:58;;;;;;;;;;;;;;;;;;5115637;28;19947;-73
2023/01/22 18:03:24;;;;;;;;;;;;;;;;;;5115781;28;19927;-73
2023/01/22 18:05:53;;;;;;;;;;;;;;;;;;5113839;28;19908;-73
2023/01/22 18:08:19;;;;;;;;;;;;;;;;;;5115297;28;20453;-73
2023/01/22 18:10:45;;;;;;;;;;;;;;;;;;5114501;28;19907;-73
2023/01/22 18:13:11;;;;;;;;;;;;;;;;;;5115585;28;20282;-72
2023/01/22 18:15:37;;;;;;;;;;;;;;;;;;5115194;28;19908;-72
2023/01/22 18:18:03;;;;;;;;;;;;;;;;;;5115538;28;19915;-72